createdAt,value
2018-03-15T00:02:13.845Z,3.00
2018-03-15T00:04:41.384Z,3.00
2018-03-15T00:07:08.904Z,3.00
2018-03-15T00:09:36.407Z,3.00
2018-03-15T00:12:03.918Z,3.00
2018-03-15T00:14:31.433Z,2.80
2018-03-15T00:16:58.985Z,2.90
2018-03-15T00:19:26.505Z,2.90
2018-03-15T00:21:54.006Z,2.90
2018-03-15T00:24:21.523Z,2.80
2018-03-15T00:26:49.044Z,2.80
2018-03-15T00:29:16.560Z,2.70
2018-03-15T00:31:44.088Z,2.60
2018-03-15T00:34:11.590Z,2.60
2018-03-15T00:36:39.129Z,2.60
2018-03-15T00:39:06.644Z,2.60
2018-03-15T00:41:34.172Z,2.60
2018-03-15T00:44:01.678Z,2.60
2018-03-15T00:46:29.179Z,2.60
2018-03-15T00:48:56.971Z,2.70
2018-03-15T00:51:24.486Z,2.70
2018-03-15T00:53:51.993Z,2.50
2018-03-15T00:56:19.528Z,2.40
2018-03-15T00:58:47.061Z,2.40
2018-03-15T01:01:14.573Z,2.40
2018-03-15T01:03:42.112Z,2.40
2018-03-15T01:06:09.633Z,2.40
2018-03-15T01:08:37.908Z,2.20
2018-03-15T01:11:05.444Z,2.20
2018-03-15T01:13:32.960Z,2.10
2018-03-15T01:16:00.487Z,2.10
2018-03-15T01:18:28.080Z,2.00
2018-03-15T01:20:55.558Z,2.10
2018-03-15T01:23:23.058Z,1.90
2018-03-15T01:25:51.582Z,1.90
2018-03-15T01:28:19.094Z,1.90
2018-03-15T01:30:46.602Z,1.90
2018-03-15T01:33:14.143Z,1.90
2018-03-15T01:35:41.652Z,1.90
2018-03-15T01:38:09.164Z,1.90
2018-03-15T01:40:36.706Z,2.00
2018-03-15T01:43:04.217Z,2.00
2018-03-15T01:45:31.732Z,2.10
2018-03-15T01:47:59.277Z,2.10
2018-03-15T01:50:26.800Z,2.10
2018-03-15T01:52:54.308Z,2.10
2018-03-15T01:55:22.602Z,2.10
2018-03-15T01:57:50.112Z,2.10
2018-03-15T02:00:17.614Z,2.10
2018-03-15T02:02:45.930Z,2.20
2018-03-15T02:05:13.440Z,2.20
2018-03-15T02:07:41.706Z,2.10
2018-03-15T02:10:09.244Z,2.10
2018-03-15T02:12:36.757Z,2.20
2018-03-15T02:15:04.288Z,2.20
2018-03-15T02:17:31.811Z,2.10
2018-03-15T02:19:59.318Z,2.10
2018-03-15T02:22:26.824Z,2.00
2018-03-15T02:24:54.392Z,2.00
2018-03-15T02:27:21.900Z,2.00
2018-03-15T02:29:49.402Z,2.00
2018-03-15T02:32:16.961Z,1.90
2018-03-15T02:34:44.520Z,1.80
2018-03-15T02:37:12.008Z,1.70
2018-03-15T02:39:40.308Z,1.60
2018-03-15T02:42:08.584Z,1.20
2018-03-15T02:44:36.103Z,1.50
2018-03-15T02:47:03.602Z,1.60
2018-03-15T02:49:31.865Z,1.60
2018-03-15T02:51:59.380Z,1.60
2018-03-15T02:54:26.898Z,1.70
2018-03-15T02:56:55.170Z,1.50
2018-03-15T02:59:22.720Z,1.30
2018-03-15T03:01:51.002Z,1.70
2018-03-15T03:04:18.513Z,1.70
2018-03-15T03:06:46.030Z,1.70
2018-03-15T03:09:13.566Z,1.60
2018-03-15T03:11:41.877Z,1.70
2018-03-15T03:14:09.396Z,1.60
2018-03-15T03:16:36.891Z,1.70
2018-03-15T03:19:04.420Z,1.50
2018-03-15T03:21:31.933Z,1.40
2018-03-15T03:23:59.426Z,1.30
2018-03-15T03:26:26.965Z,1.30
2018-03-15T03:28:54.575Z,1.40
2018-03-15T03:31:22.067Z,1.00
2018-03-15T03:33:49.601Z,1.40
2018-03-15T03:36:17.863Z,1.70
2018-03-15T03:38:45.361Z,1.50
2018-03-15T03:41:12.863Z,1.40
2018-03-15T03:43:40.354Z,1.10
2018-03-15T03:46:07.880Z,1.40
2018-03-15T03:48:35.374Z,1.30
2018-03-15T03:51:02.869Z,1.30
2018-03-15T03:53:30.408Z,1.20
2018-03-15T03:55:57.902Z,1.30
2018-03-15T03:58:25.413Z,1.10
2018-03-15T04:00:52.944Z,1.10
2018-03-15T04:03:20.461Z,0.90
2018-03-15T04:05:47.966Z,0.90
2018-03-15T04:08:15.466Z,1.30
2018-03-15T04:10:42.992Z,1.20
2018-03-15T04:13:10.529Z,1.10
2018-03-15T04:15:38.026Z,1.20
2018-03-15T04:18:05.537Z,1.10
2018-03-15T04:20:33.069Z,1.20
2018-03-15T04:23:00.572Z,1.00
2018-03-15T04:25:28.842Z,0.90
2018-03-15T04:27:56.345Z,1.00
2018-03-15T04:30:23.842Z,0.80
2018-03-15T04:32:51.344Z,0.80
2018-03-15T04:35:18.857Z,0.80
2018-03-15T04:37:47.224Z,0.60
2018-03-15T04:40:14.772Z,0.60
2018-03-15T04:42:42.276Z,0.80
2018-03-15T04:45:09.775Z,0.60
2018-03-15T04:47:37.314Z,0.80
2018-03-15T04:50:04.836Z,0.70
2018-03-15T04:52:33.099Z,0.70
2018-03-15T04:55:00.611Z,0.50
2018-03-15T04:57:28.121Z,0.80
2018-03-15T04:59:55.654Z,0.70
2018-03-15T05:02:23.160Z,0.80
2018-03-15T05:04:50.670Z,0.90
2018-03-15T05:07:18.223Z,0.90
2018-03-15T05:09:45.714Z,1.10
2018-03-15T05:12:13.207Z,0.80
2018-03-15T05:14:40.740Z,1.00
2018-03-15T05:17:08.243Z,0.90
2018-03-15T05:19:35.738Z,0.60
2018-03-15T05:22:03.258Z,0.70
2018-03-15T05:24:30.774Z,0.90
2018-03-15T05:26:59.042Z,0.90
2018-03-15T05:29:26.578Z,0.80
2018-03-15T05:31:54.075Z,0.60
2018-03-15T05:34:21.570Z,0.80
2018-03-15T05:36:49.074Z,0.80
2018-03-15T05:39:16.591Z,0.90
2018-03-15T05:41:44.090Z,0.80
2018-03-15T05:44:11.589Z,0.80
2018-03-15T05:46:39.860Z,0.80
2018-03-15T05:49:07.397Z,0.80
2018-03-15T05:51:34.913Z,0.90
2018-03-15T05:54:02.402Z,1.20
2018-03-15T05:56:29.915Z,1.00
2018-03-15T05:58:57.418Z,0.90
2018-03-15T06:01:24.984Z,1.10
2018-03-15T06:03:52.482Z,0.80
2018-03-15T06:06:20.751Z,0.90
2018-03-15T06:08:48.277Z,0.80
2018-03-15T06:11:15.782Z,1.00
2018-03-15T06:13:43.300Z,1.00
2018-03-15T06:16:11.612Z,1.20
2018-03-15T06:18:39.107Z,1.20
2018-03-15T06:21:06.616Z,1.30
2018-03-15T06:23:34.124Z,1.30
2018-03-15T06:26:01.620Z,1.30
2018-03-15T06:28:29.160Z,1.40
2018-03-15T06:30:56.662Z,1.50
2018-03-15T06:33:24.168Z,1.40
2018-03-15T06:35:52.106Z,1.20
2018-03-15T06:38:19.610Z,1.50
2018-03-15T06:40:47.102Z,1.50
2018-03-15T06:43:15.685Z,1.20
2018-03-15T06:45:43.205Z,1.40
2018-03-15T06:48:10.703Z,1.20
2018-03-15T06:50:39.004Z,1.50
2018-03-15T06:53:06.501Z,1.20
2018-03-15T06:55:34.012Z,1.20
2018-03-15T06:58:01.534Z,1.40
2018-03-15T07:00:29.835Z,1.60
2018-03-15T07:02:57.330Z,1.30
2018-03-15T07:05:24.836Z,1.60
2018-03-15T07:07:52.334Z,1.80
2018-03-15T07:10:19.837Z,1.70
2018-03-15T07:12:47.422Z,1.50
2018-03-15T07:15:15.833Z,2.00
2018-03-15T07:17:43.330Z,1.90
2018-03-15T07:20:10.873Z,1.90
2018-03-15T07:22:38.382Z,1.80
2018-03-15T07:25:05.884Z,1.80
2018-03-15T07:27:33.410Z,1.90
2018-03-15T07:30:00.907Z,2.00
2018-03-15T07:32:28.413Z,2.00
2018-03-15T07:34:56.335Z,2.10
2018-03-15T07:37:23.835Z,2.20
2018-03-15T07:39:52.108Z,2.20
2018-03-15T07:42:19.636Z,2.20
2018-03-15T07:44:47.141Z,2.20
2018-03-15T07:47:14.648Z,2.20
2018-03-15T07:49:42.189Z,2.30
2018-03-15T07:52:09.737Z,2.40
2018-03-15T07:54:37.214Z,2.50
2018-03-15T07:57:04.728Z,2.40
2018-03-15T07:59:32.994Z,2.40
2018-03-15T08:02:00.576Z,2.40
2018-03-15T08:04:28.827Z,2.60
2018-03-15T08:06:56.358Z,2.60
2018-03-15T08:09:23.874Z,2.70
2018-03-15T08:11:51.380Z,2.70
2018-03-15T08:14:18.896Z,2.60
2018-03-15T08:16:46.540Z,2.60
2018-03-15T08:19:14.816Z,2.80
2018-03-15T08:21:42.320Z,2.80
2018-03-15T08:24:09.857Z,2.60
2018-03-15T08:26:37.369Z,2.90
2018-03-15T08:29:05.671Z,3.20
2018-03-15T08:31:33.934Z,3.10
2018-03-15T08:34:01.455Z,3.10
2018-03-15T08:36:28.972Z,3.00
2018-03-15T08:38:56.470Z,3.30
2018-03-15T08:41:23.992Z,3.20
2018-03-15T08:43:51.525Z,3.10
2018-03-15T08:46:19.020Z,3.30
2018-03-15T08:48:46.530Z,3.60
2018-03-15T08:51:14.054Z,3.50
2018-03-15T08:53:41.560Z,3.70
2018-03-15T08:56:09.055Z,3.50
2018-03-15T08:58:36.907Z,3.60
2018-03-15T09:01:04.403Z,3.70
2018-03-15T09:03:31.917Z,3.80
2018-03-15T09:05:59.598Z,3.90
2018-03-15T09:08:27.112Z,3.90
2018-03-15T09:10:54.627Z,4.10
2018-03-15T09:13:22.142Z,3.70
2018-03-15T09:15:49.650Z,3.90
2018-03-15T09:18:17.146Z,3.90
2018-03-15T09:20:44.651Z,3.80
2018-03-15T09:23:12.150Z,3.60
2018-03-15T09:25:39.681Z,3.50
2018-03-15T09:28:07.229Z,3.60
2018-03-15T09:30:34.743Z,3.60
2018-03-15T09:33:02.270Z,3.70
2018-03-15T09:35:29.826Z,3.50
2018-03-15T09:37:57.352Z,3.60
2018-03-15T09:40:24.880Z,3.80
2018-03-15T09:42:52.678Z,3.90
2018-03-15T09:45:20.197Z,4.10
2018-03-15T09:47:48.495Z,4.40
2018-03-15T09:50:16.099Z,4.30
2018-03-15T09:52:43.636Z,4.60
2018-03-15T09:55:11.179Z,4.60
2018-03-15T09:57:38.734Z,4.60
2018-03-15T10:00:07.037Z,4.60
2018-03-15T10:02:34.535Z,4.60
2018-03-15T10:05:02.062Z,4.80
2018-03-15T10:07:29.604Z,4.70
2018-03-15T10:09:57.122Z,4.80
2018-03-15T10:12:24.653Z,4.50
2018-03-15T10:14:52.181Z,4.80
2018-03-15T10:17:19.699Z,4.80
2018-03-15T10:19:47.240Z,4.80
2018-03-15T10:22:14.788Z,5.00
2018-03-15T10:24:42.267Z,5.10
2018-03-15T10:27:09.816Z,5.10
2018-03-15T10:29:38.105Z,4.90
2018-03-15T10:32:06.463Z,5.00
2018-03-15T10:34:34.002Z,5.00
2018-03-15T10:37:01.523Z,4.90
2018-03-15T10:39:29.035Z,4.90
2018-03-15T10:41:56.574Z,4.80
2018-03-15T10:44:24.086Z,5.00
2018-03-15T10:46:52.358Z,5.00
2018-03-15T10:49:19.903Z,5.00
2018-03-15T10:51:47.428Z,5.20
2018-03-15T10:54:14.950Z,4.90
2018-03-15T10:56:42.496Z,5.00
2018-03-15T10:59:10.021Z,5.00
2018-03-15T11:01:43.188Z,5.20
2018-03-15T11:04:10.717Z,5.10
2018-03-15T11:06:41.201Z,4.90
2018-03-15T11:12:15.551Z,4.80
2018-03-15T11:14:43.130Z,5.00
2018-03-15T11:17:11.437Z,5.00
2018-03-15T11:19:38.964Z,5.00
2018-03-15T11:22:06.638Z,5.00
2018-03-15T11:24:34.931Z,5.00
2018-03-15T11:27:02.468Z,5.00
2018-03-15T11:29:30.771Z,5.30
2018-03-15T11:31:58.288Z,5.30
2018-03-15T11:34:25.815Z,5.50
2018-03-15T11:36:53.376Z,5.60
2018-03-15T11:39:20.887Z,5.30
2018-03-15T11:41:48.402Z,5.40
2018-03-15T11:44:15.953Z,5.10
2018-03-15T11:46:43.476Z,5.00
2018-03-15T11:49:11.030Z,4.90
2018-03-15T11:51:38.582Z,4.60
2018-03-15T11:54:06.860Z,4.90
2018-03-15T11:56:34.378Z,4.80
2018-03-15T11:59:01.914Z,4.80
2018-03-15T12:01:29.426Z,4.70
2018-03-15T12:03:57.713Z,4.50
2018-03-15T12:06:26.053Z,4.70
2018-03-15T12:08:53.574Z,4.70
2018-03-15T12:11:21.099Z,4.60
2018-03-15T12:13:48.685Z,4.60
2018-03-15T12:16:16.209Z,4.50
2018-03-15T12:18:43.723Z,4.60
2018-03-15T12:21:11.265Z,4.50
2018-03-15T12:23:38.791Z,4.70
2018-03-15T12:26:06.305Z,4.50
2018-03-15T12:28:33.828Z,4.60
2018-03-15T12:31:02.113Z,4.70
2018-03-15T12:33:29.620Z,4.70
2018-03-15T12:35:57.173Z,4.60
2018-03-15T12:38:24.689Z,4.70
2018-03-15T12:40:52.198Z,4.90
2018-03-15T12:43:19.773Z,5.00
2018-03-15T12:45:47.353Z,5.00
2018-03-15T12:48:14.857Z,4.90
2018-03-15T12:50:42.406Z,4.90
2018-03-15T12:53:09.936Z,4.80
2018-03-15T12:55:38.226Z,5.00
2018-03-15T12:58:05.777Z,5.00
2018-03-15T13:00:34.115Z,5.10
2018-03-15T13:03:01.654Z,5.10
2018-03-15T13:05:29.196Z,5.20
2018-03-15T13:07:56.739Z,5.20
2018-03-15T13:10:24.268Z,5.20
2018-03-15T13:12:51.797Z,5.30
2018-03-15T13:15:19.336Z,5.30
2018-03-15T13:17:46.853Z,5.20
2018-03-15T13:20:14.387Z,5.00
2018-03-15T13:22:41.944Z,5.10
2018-03-15T13:25:09.467Z,4.90
2018-03-15T13:27:36.989Z,4.80
2018-03-15T13:30:04.565Z,4.80
2018-03-15T13:32:32.859Z,5.00
2018-03-15T13:35:00.375Z,4.90
2018-03-15T13:37:28.105Z,4.80
2018-03-15T13:39:55.622Z,4.80
2018-03-15T13:42:23.911Z,4.80
2018-03-15T13:44:51.470Z,4.80
2018-03-15T13:47:19.764Z,4.90
2018-03-15T13:49:47.291Z,4.90
2018-03-15T13:52:15.615Z,4.70
2018-03-15T13:54:43.157Z,4.70
2018-03-15T13:57:10.738Z,4.40
2018-03-15T13:59:38.263Z,4.40
2018-03-15T14:02:05.775Z,4.30
2018-03-15T14:04:33.339Z,4.20
2018-03-15T14:07:00.863Z,4.30
2018-03-15T14:09:28.391Z,4.30
2018-03-15T14:11:55.938Z,4.10
2018-03-15T14:14:24.227Z,3.60
2018-03-15T14:16:51.822Z,3.50
2018-03-15T14:19:19.352Z,3.50
2018-03-15T14:21:46.890Z,3.40
2018-03-15T14:24:14.530Z,3.30
2018-03-15T14:26:42.053Z,3.40
2018-03-15T14:29:09.574Z,3.60
2018-03-15T14:31:37.144Z,3.70
2018-03-15T14:34:05.448Z,3.90
2018-03-15T14:36:32.980Z,3.90
2018-03-15T14:39:01.298Z,3.80
2018-03-15T14:41:28.827Z,3.70
2018-03-15T14:43:56.352Z,3.70
2018-03-15T14:46:23.931Z,3.60
2018-03-15T14:48:51.462Z,3.50
2018-03-15T14:51:19.037Z,3.50
2018-03-15T14:53:47.482Z,3.40
2018-03-15T14:56:15.005Z,3.30
2018-03-15T14:58:42.521Z,3.30
2018-03-15T15:01:10.082Z,3.30
2018-03-15T15:03:37.616Z,3.20
2018-03-15T15:06:05.147Z,3.20
2018-03-15T15:08:32.698Z,3.20
2018-03-15T15:11:00.233Z,3.10
2018-03-15T15:13:28.526Z,2.90
2018-03-15T15:15:56.850Z,2.90
2018-03-15T15:18:24.398Z,2.80
2018-03-15T15:20:51.954Z,2.70
2018-03-15T15:23:19.494Z,2.60
2018-03-15T15:25:47.059Z,2.50
2018-03-15T15:28:14.592Z,2.50
2018-03-15T15:30:42.109Z,2.60
2018-03-15T15:33:09.666Z,2.60
2018-03-15T15:35:37.193Z,2.60
2018-03-15T15:38:04.720Z,2.60
2018-03-15T15:40:32.288Z,2.50
2018-03-15T15:42:59.827Z,2.50
2018-03-15T15:45:27.367Z,2.40
2018-03-15T15:47:54.979Z,2.30
2018-03-15T15:50:22.557Z,2.20
2018-03-15T15:52:50.322Z,2.00
2018-03-15T15:55:17.851Z,1.80
2018-03-15T15:57:45.370Z,1.70
2018-03-15T16:00:12.982Z,1.70
2018-03-15T16:02:41.269Z,1.50
2018-03-15T16:05:08.798Z,1.80
2018-03-15T16:07:37.147Z,1.40
2018-03-15T16:10:04.671Z,1.50
2018-03-15T16:12:32.217Z,1.30
2018-03-15T16:14:59.810Z,1.10
2018-03-15T16:17:27.335Z,1.00
2018-03-15T16:19:55.627Z,1.00
2018-03-15T16:22:23.243Z,1.10
2018-03-15T16:24:50.824Z,0.90
2018-03-15T16:27:18.371Z,0.80
2018-03-15T16:29:46.674Z,0.80
2018-03-15T16:32:14.217Z,0.70
2018-03-15T16:34:42.562Z,0.60
2018-03-15T16:37:10.095Z,0.50
2018-03-15T16:39:37.640Z,0.60
2018-03-15T16:42:05.231Z,0.80
2018-03-15T16:44:32.761Z,0.80
2018-03-15T16:47:00.286Z,0.90
2018-03-15T16:49:27.971Z,0.70
2018-03-15T16:51:55.494Z,0.60
2018-03-15T16:54:23.111Z,0.70
2018-03-15T16:56:50.672Z,0.80
2018-03-15T16:59:18.224Z,0.70
2018-03-15T17:01:45.823Z,0.90
2018-03-15T17:04:13.374Z,0.80
2018-03-15T17:06:40.917Z,0.60
2018-03-15T17:09:08.470Z,0.60
2018-03-15T17:11:36.342Z,0.40
2018-03-15T17:14:03.883Z,0.30
2018-03-15T17:16:31.499Z,0.20
2018-03-15T17:18:59.044Z,0.50
2018-03-15T17:21:26.603Z,0.30
2018-03-15T17:23:54.193Z,0.40
2018-03-15T17:26:22.509Z,0.60
2018-03-15T17:28:50.040Z,0.60
2018-03-15T17:31:18.418Z,0.40
2018-03-15T17:33:46.710Z,0.30
2018-03-15T17:36:14.244Z,0.60
2018-03-15T17:38:42.584Z,0.50
2018-03-15T17:41:10.119Z,0.50
2018-03-15T17:43:38.702Z,0.70
2018-03-15T17:46:06.265Z,0.70
2018-03-15T17:48:33.811Z,0.60
2018-03-15T17:51:01.354Z,0.40
2018-03-15T17:53:29.093Z,0.70
2018-03-15T17:55:56.614Z,0.50
2018-03-15T17:58:24.432Z,0.40
2018-03-15T18:00:52.778Z,0.50
2018-03-15T18:03:20.416Z,0.50
2018-03-15T18:05:47.964Z,0.50
2018-03-15T18:08:15.507Z,0.50
2018-03-15T18:10:44.148Z,0.40
2018-03-15T18:13:11.760Z,0.40
2018-03-15T18:15:39.332Z,0.30
2018-03-15T18:18:06.883Z,0.40
2018-03-15T18:20:34.425Z,0.40
2018-03-15T18:23:02.002Z,0.50
2018-03-15T18:25:29.543Z,0.40
2018-03-15T18:27:57.902Z,0.60
2018-03-15T18:30:25.497Z,0.50
2018-03-15T18:32:53.147Z,0.40
2018-03-15T18:35:20.696Z,0.50
2018-03-15T18:37:48.238Z,0.50
2018-03-15T18:40:15.810Z,0.50
2018-03-15T18:42:43.342Z,0.70
2018-03-15T18:45:10.948Z,0.50
2018-03-15T18:47:38.506Z,0.50
2018-03-15T18:50:06.033Z,0.70
2018-03-15T18:52:34.386Z,0.60
2018-03-15T18:55:02.203Z,0.60
2018-03-15T18:57:29.803Z,0.70
2018-03-15T18:59:57.374Z,0.40
2018-03-15T19:02:25.117Z,0.70
2018-03-15T19:04:52.779Z,0.60
2018-03-15T19:07:20.582Z,0.50
2018-03-15T19:09:48.129Z,0.50
2018-03-15T19:12:15.687Z,0.40
2018-03-15T19:14:43.256Z,0.40
2018-03-15T19:17:10.797Z,0.60
2018-03-15T19:19:38.342Z,0.30
2018-03-15T19:22:06.086Z,0.30
2018-03-15T19:24:34.080Z,0.30
2018-03-15T19:27:01.629Z,0.20
2018-03-15T19:29:29.192Z,0.10
2018-03-15T19:31:56.947Z,0.00
2018-03-15T19:34:24.480Z,0.10
2018-03-15T19:36:52.971Z,-0.10
2018-03-15T19:39:20.564Z,0.00
2018-03-15T19:41:48.110Z,-0.10
2018-03-15T19:44:15.655Z,0.00
2018-03-15T19:46:43.212Z,0.00
2018-03-15T19:49:10.765Z,0.10
2018-03-15T19:51:39.068Z,-0.20
2018-03-15T19:54:06.639Z,-0.20
2018-03-15T19:56:34.210Z,0.00
2018-03-15T19:59:01.795Z,-0.30
2018-03-15T20:01:29.356Z,0.00
2018-03-15T20:03:56.966Z,0.10
2018-03-15T20:06:24.537Z,0.00
2018-03-15T20:08:52.305Z,0.00
2018-03-15T20:11:19.871Z,0.00
2018-03-15T20:13:47.413Z,0.00
2018-03-15T20:16:14.990Z,-0.10
2018-03-15T20:18:42.521Z,0.00
2018-03-15T20:21:10.042Z,0.10
2018-03-15T20:23:43.726Z,-0.20
2018-03-15T20:26:11.283Z,-0.10
2018-03-15T20:28:44.452Z,0.00
2018-03-15T20:31:11.985Z,-0.10
2018-03-15T20:36:43.383Z,-0.60
2018-03-15T20:39:17.207Z,-0.60
2018-03-15T20:41:44.747Z,-0.70
2018-03-15T20:44:12.294Z,-0.70
2018-03-15T20:46:45.455Z,-0.90
2018-03-15T20:49:13.675Z,-0.60
2018-03-15T20:51:41.233Z,-0.70
2018-03-15T20:54:09.259Z,-0.80
2018-03-15T20:56:37.565Z,-0.70
2018-03-15T20:59:05.145Z,-0.80
2018-03-15T21:01:32.703Z,-0.60
2018-03-15T21:04:01.062Z,-0.40
2018-03-15T21:06:28.627Z,-0.70
2018-03-15T21:08:56.152Z,-0.60
2018-03-15T21:11:24.454Z,-0.60
2018-03-15T21:13:52.148Z,-0.70
2018-03-15T21:16:19.689Z,-0.70
2018-03-15T21:18:47.352Z,-0.80
2018-03-15T21:21:14.932Z,-0.70
2018-03-15T21:23:42.469Z,-0.70
2018-03-15T21:26:10.006Z,-0.90
2018-03-15T21:28:37.594Z,-0.60
2018-03-15T21:31:06.262Z,-0.70
2018-03-15T21:33:33.840Z,-0.80
2018-03-15T21:36:01.394Z,-0.70
2018-03-15T21:38:28.937Z,-0.70
2018-03-15T21:40:56.701Z,-0.60
2018-03-15T21:43:25.024Z,-0.30
2018-03-15T21:45:52.558Z,-0.30
2018-03-15T21:48:20.138Z,-0.40
2018-03-15T21:50:47.786Z,-0.30
2018-03-15T21:53:15.466Z,-0.40
2018-03-15T21:55:43.217Z,-0.20
2018-03-15T21:58:10.756Z,-0.50
2018-03-15T22:00:38.288Z,-0.40
2018-03-15T22:03:05.842Z,-0.50
2018-03-15T22:05:33.374Z,-0.40
2018-03-15T22:08:00.956Z,-0.30
2018-03-15T22:10:28.491Z,-0.40
2018-03-15T22:12:56.030Z,-0.60
2018-03-15T22:15:23.586Z,-0.50
2018-03-15T22:17:51.110Z,-0.50
2018-03-15T22:20:18.656Z,-0.50
2018-03-15T22:22:46.227Z,-0.40
2018-03-15T22:25:14.524Z,-0.40
2018-03-15T22:27:42.051Z,-0.50
2018-03-15T22:30:09.622Z,-0.30
2018-03-15T22:32:37.166Z,-0.50
2018-03-15T22:35:04.711Z,-0.40
2018-03-15T22:37:32.283Z,-0.40
2018-03-15T22:40:00.587Z,-0.30
2018-03-15T22:42:28.133Z,-0.50
2018-03-15T22:44:55.678Z,-0.60
2018-03-15T22:47:23.209Z,-0.30
2018-03-15T22:49:50.766Z,-0.30
2018-03-15T22:52:18.331Z,-0.40
2018-03-15T22:54:45.872Z,-0.40
2018-03-15T22:57:13.445Z,-0.30
2018-03-15T22:59:41.246Z,-0.20
2018-03-15T23:02:09.533Z,-0.40
2018-03-15T23:04:37.866Z,-0.40
2018-03-15T23:07:05.409Z,-0.30
2018-03-15T23:09:32.938Z,-0.50
2018-03-15T23:12:00.502Z,-0.50
2018-03-15T23:14:28.046Z,-0.50
2018-03-15T23:16:56.360Z,-0.50
2018-03-15T23:19:23.947Z,-0.50
2018-03-15T23:21:51.494Z,-0.40
2018-03-15T23:24:19.070Z,-0.50
2018-03-15T23:26:46.605Z,-0.30
2018-03-15T23:29:14.134Z,-0.40
2018-03-15T23:31:41.695Z,-0.40
2018-03-15T23:34:09.231Z,-0.50
2018-03-15T23:36:36.754Z,-0.30
2018-03-15T23:39:04.424Z,-0.40
2018-03-15T23:41:32.000Z,-0.50
2018-03-15T23:43:59.577Z,-0.40
2018-03-15T23:46:27.181Z,-0.40
2018-03-15T23:48:54.705Z,-0.20
2018-03-15T23:51:22.362Z,-0.30
2018-03-15T23:53:50.703Z,-0.40
2018-03-15T23:56:18.249Z,-0.40
2018-03-15T23:58:45.781Z,-0.20
